createdAt,value
2022-09-05T10:01:21.533Z,999.96
2022-09-05T10:01:41.435Z,1000.05
2022-09-05T10:01:46.207Z,1000.07
2022-09-05T10:02:07.400Z,1000.05
2022-09-05T10:10:33.406Z,1000.05
2022-09-05T10:11:56.779Z,1000.09
2022-09-05T10:12:02.935Z,1000.09
2022-09-05T10:12:12.307Z,1000.09
2022-09-05T10:12:22.350Z,1000.09
2022-09-05T10:12:32.344Z,1000.08
2022-09-05T10:12:42.487Z,1000.09
2022-09-05T10:12:55.194Z,1000.09
2022-09-05T10:13:13.591Z,1000.09
2022-09-05T10:13:18.893Z,1000.11
2022-09-05T10:13:28.935Z,1000.10
2022-09-05T10:13:39.085Z,1000.10
2022-09-05T10:13:49.194Z,1000.10
2022-09-05T10:13:59.289Z,1000.10
2022-09-05T10:14:09.423Z,1000.10
2022-09-05T10:14:51.178Z,1000.12
2022-09-05T10:14:56.010Z,1000.10
2022-09-05T10:15:11.315Z,1000.10
2022-09-05T10:15:36.408Z,1000.11
2022-09-05T10:15:41.191Z,1000.11
2022-09-05T10:15:51.323Z,1000.12
2022-09-05T10:16:04.374Z,1000.12
2022-09-05T10:16:12.838Z,1000.10
2022-09-05T10:16:21.785Z,1000.10
2022-09-05T10:16:31.751Z,1000.10
2022-09-05T10:16:41.879Z,1000.11
2022-09-05T10:16:51.938Z,1000.11
2022-09-05T10:17:02.008Z,1000.10
2022-09-05T10:17:12.176Z,1000.09
2022-09-05T10:17:22.260Z,1000.10
2022-09-05T10:17:32.430Z,1000.09
2022-09-05T10:17:42.504Z,1000.10
2022-09-05T10:17:52.800Z,1000.09
2022-09-05T10:18:02.709Z,1000.09
2022-09-05T10:18:12.801Z,1000.09
2022-09-05T10:18:24.145Z,1000.08
2022-09-05T10:18:33.032Z,1000.08
2022-09-05T10:18:43.152Z,1000.08
2022-09-05T10:18:53.243Z,1000.09
2022-09-05T10:19:03.323Z,1000.10
2022-09-05T10:19:13.396Z,1000.10
2022-09-05T10:20:07.643Z,1000.09
2022-09-05T10:20:14.061Z,1000.09
2022-09-05T10:20:18.842Z,1000.09
2022-09-05T10:20:29.682Z,1000.09
2022-09-05T10:20:39.941Z,1000.10
2022-09-05T10:20:49.645Z,1000.11
2022-09-05T10:21:20.460Z,1000.11
2022-09-05T10:21:25.197Z,1000.11
2022-09-05T10:21:35.278Z,1000.10
2022-09-05T10:21:45.529Z,1000.10
2022-09-05T10:22:37.939Z,1000.11
2022-09-05T10:22:42.665Z,1000.10
2022-09-05T10:22:49.868Z,1000.12
2022-09-05T10:23:00.114Z,1000.12
2022-09-05T10:23:10.156Z,1000.09
2022-09-05T10:23:20.971Z,1000.08
2022-09-05T10:23:30.369Z,1000.07
2022-09-05T10:23:44.759Z,1000.08
2022-09-05T10:23:50.519Z,1000.07
2022-09-05T10:24:00.686Z,1000.09
2022-09-05T10:24:10.765Z,1000.09
2022-09-05T10:24:20.846Z,1000.08
2022-09-05T10:24:31.136Z,1000.08
2022-09-05T10:24:42.321Z,1000.09
2022-09-05T10:24:51.254Z,1000.10
2022-09-05T10:25:16.506Z,1000.12
2022-09-05T10:25:24.068Z,1000.12
2022-09-05T10:25:32.689Z,1000.12
2022-09-05T10:25:42.829Z,1000.10
2022-09-05T10:25:52.976Z,1000.11
2022-09-05T10:26:03.129Z,1000.10
2022-09-05T10:26:13.223Z,1000.11
2022-09-05T10:26:23.369Z,1000.11
2022-09-05T10:26:33.445Z,1000.10
2022-09-05T10:26:43.619Z,1000.10
2022-09-05T10:26:53.684Z,1000.10
2022-09-05T10:27:03.876Z,1000.10
2022-09-05T10:27:13.973Z,1000.09
2022-09-05T10:27:25.189Z,1000.10
2022-09-05T10:27:34.234Z,1000.09
2022-09-05T10:27:44.458Z,1000.08
2022-09-05T10:27:54.679Z,1000.08
2022-09-05T10:28:05.388Z,1000.08
2022-09-05T10:28:14.683Z,1000.08
2022-09-05T10:28:24.844Z,1000.08
2022-09-05T10:28:34.919Z,1000.07
2022-09-05T10:28:45.088Z,1000.07
2022-09-05T10:28:55.269Z,1000.07
2022-09-05T10:29:38.063Z,1000.06
2022-09-05T10:29:43.172Z,1000.05
2022-09-05T10:29:48.694Z,1000.05
2022-09-05T10:29:58.024Z,1000.03
2022-09-05T10:30:08.105Z,1000.01
2022-09-05T10:30:19.821Z,1000.03
2022-09-05T10:33:22.655Z,1000.04
2022-09-05T10:35:24.246Z,1000.02
2022-09-05T10:35:29.940Z,1000.02
2022-09-05T10:35:39.534Z,1000.02
2022-09-05T10:35:49.646Z,1000.03
2022-09-05T10:35:59.728Z,1000.01
2022-09-05T10:36:12.906Z,1000.01
2022-09-05T10:36:20.009Z,999.99
2022-09-05T10:36:30.916Z,1000.00
2022-09-05T10:36:40.157Z,999.99
2022-09-05T10:36:52.186Z,1000.00
2022-09-05T10:37:00.330Z,1000.00
2022-09-05T10:37:10.469Z,1000.00
2022-09-05T10:37:20.645Z,1000.00
2022-09-05T10:37:30.758Z,1000.01
2022-09-05T10:37:40.903Z,999.99
2022-09-05T10:37:51.388Z,999.99
2022-09-05T10:38:06.333Z,999.99
2022-09-05T10:38:15.395Z,999.98
2022-09-05T10:38:21.307Z,999.98
2022-09-05T10:38:31.390Z,999.97
2022-09-05T10:38:41.663Z,999.97
2022-09-05T10:38:51.556Z,999.97
2022-09-05T10:39:01.688Z,999.97
2022-09-05T10:39:13.548Z,999.97
2022-09-05T10:39:22.029Z,999.97
2022-09-05T10:39:32.159Z,999.97
2022-09-05T10:39:42.234Z,999.97
2022-09-05T10:39:52.315Z,999.97
2022-09-05T10:40:02.534Z,999.97
2022-09-05T10:40:12.549Z,999.98
2022-09-05T10:40:22.672Z,999.96
2022-09-05T10:40:46.329Z,999.97
2022-09-05T10:41:26.497Z,999.97
2022-09-05T10:41:31.965Z,999.96
2022-09-05T10:41:41.335Z,999.96
2022-09-05T10:41:51.486Z,999.97
2022-09-05T10:42:03.559Z,999.97
2022-09-05T10:42:11.778Z,999.97
2022-09-05T10:42:21.943Z,999.98
2022-09-05T10:42:32.045Z,999.98
2022-09-05T10:42:44.940Z,999.98
2022-09-05T10:43:05.617Z,999.98
2022-09-05T10:43:10.337Z,999.98
2022-09-05T10:43:20.479Z,999.98
2022-09-05T10:43:30.538Z,999.97
2022-09-05T10:43:40.613Z,999.97
2022-09-05T10:43:50.758Z,999.97
2022-09-05T10:44:00.889Z,999.96
2022-09-05T10:44:11.074Z,999.96
2022-09-05T10:44:21.139Z,999.96
2022-09-05T10:44:31.287Z,999.97
2022-09-05T10:44:41.432Z,999.96
2022-09-05T10:44:51.574Z,999.96
2022-09-05T10:45:01.713Z,999.96
2022-09-05T10:45:11.857Z,999.95
2022-09-05T10:45:33.397Z,999.95
2022-09-05T10:45:43.357Z,999.96
2022-09-05T10:45:48.092Z,999.96
2022-09-05T10:45:58.297Z,999.94
2022-09-05T10:46:08.410Z,999.94
2022-09-05T10:46:46.661Z,999.94
2022-09-05T10:46:54.604Z,999.95
2022-09-05T10:46:59.345Z,999.93
2022-09-05T10:47:09.524Z,999.93
2022-09-05T10:47:19.626Z,999.94
2022-09-05T10:47:29.715Z,999.94
2022-09-05T10:47:39.791Z,999.94
2022-09-05T10:47:49.937Z,999.94
2022-09-05T10:48:08.330Z,999.94
2022-09-05T10:48:18.357Z,999.94
2022-09-05T10:48:23.101Z,999.94
2022-09-05T10:48:33.230Z,999.94
2022-09-05T10:48:43.392Z,999.94
2022-09-05T10:48:59.616Z,999.92
2022-09-05T10:49:04.384Z,999.92
2022-09-05T10:49:14.454Z,999.91
2022-09-05T10:49:24.771Z,999.90
2022-09-05T10:49:34.637Z,999.90
2022-09-05T10:49:44.781Z,999.90
2022-09-05T10:49:54.941Z,999.91
2022-09-05T10:50:05.113Z,999.91
2022-09-05T10:50:15.208Z,999.91
2022-09-05T10:50:25.280Z,999.90
2022-09-05T10:50:35.426Z,999.90
2022-09-05T10:50:45.560Z,999.89
2022-09-05T10:50:55.721Z,999.90
2022-09-05T10:51:05.781Z,999.88
2022-09-05T10:51:27.071Z,999.88
2022-09-05T10:51:37.638Z,999.90
2022-09-05T10:51:42.509Z,999.91
2022-09-05T10:51:52.579Z,999.91
2022-09-05T10:52:18.220Z,999.89
2022-09-05T10:52:23.705Z,999.91
2022-09-05T10:52:28.465Z,999.91
2022-09-05T10:52:38.624Z,999.91
2022-09-05T10:52:48.625Z,999.90
2022-09-05T10:52:58.696Z,999.90
2022-09-05T10:53:08.846Z,999.92
2022-09-05T10:53:18.992Z,999.92
2022-09-05T10:53:39.346Z,999.91
2022-09-05T10:53:44.249Z,999.91
2022-09-05T10:53:49.360Z,999.90
2022-09-05T10:53:59.533Z,999.88
2022-09-05T10:54:09.619Z,999.89
2022-09-05T10:54:19.687Z,999.90
2022-09-05T10:54:29.828Z,999.91
2022-09-05T10:54:39.971Z,999.91
2022-09-05T10:54:50.812Z,999.92
2022-09-05T10:55:14.736Z,999.93
2022-09-05T10:55:20.024Z,999.93
2022-09-05T10:55:24.754Z,999.92
2022-09-05T10:55:34.899Z,999.92
2022-09-05T10:55:45.153Z,999.92
2022-09-05T10:55:55.138Z,999.92
2022-09-05T10:56:05.270Z,999.91
2022-09-05T10:56:15.418Z,999.91
2022-09-05T10:56:26.062Z,999.91
2022-09-05T10:56:35.661Z,999.91
2022-09-05T10:56:45.785Z,999.91
2022-09-05T10:56:55.895Z,999.91
2022-09-05T10:57:05.978Z,999.90
2022-09-05T10:57:16.062Z,999.91
2022-09-05T10:57:26.161Z,999.91
2022-09-05T10:57:36.223Z,999.92
2022-09-05T10:57:46.378Z,999.93
2022-09-05T10:57:56.484Z,999.92
2022-09-05T10:58:06.543Z,999.92
2022-09-05T10:58:16.685Z,999.92
2022-09-05T10:59:26.051Z,999.91
2022-09-05T11:02:33.539Z,999.90
2022-09-05T11:02:46.520Z,999.85
2022-09-05T11:02:57.763Z,999.85
2022-09-05T11:03:02.737Z,999.84
2022-09-05T11:03:22.630Z,999.83
2022-09-05T11:03:28.263Z,999.85
2022-09-05T11:03:33.290Z,999.84
2022-09-05T11:03:43.320Z,999.83
2022-09-05T11:03:53.375Z,999.83
2022-09-05T11:04:03.533Z,999.83
2022-09-05T11:04:13.711Z,999.83
2022-09-05T11:04:23.679Z,999.83
2022-09-05T11:04:37.164Z,999.82
2022-09-05T11:04:51.665Z,999.82
2022-09-05T11:04:56.499Z,999.82
2022-09-05T11:05:06.652Z,999.82
2022-09-05T11:05:16.798Z,999.82
2022-09-05T11:05:27.143Z,999.82
2022-09-05T11:05:38.122Z,999.80
2022-09-05T11:05:47.157Z,999.80
2022-09-05T11:05:57.210Z,999.82
2022-09-05T11:06:09.351Z,999.81
2022-09-05T11:06:17.484Z,999.82
2022-09-05T11:06:29.463Z,999.82
2022-09-05T11:06:37.690Z,999.82
2022-09-05T11:06:47.753Z,999.82
2022-09-05T11:06:57.891Z,999.81
2022-09-05T11:07:08.055Z,999.80
2022-09-05T11:07:18.126Z,999.79
2022-09-05T11:07:33.781Z,999.78
2022-09-05T11:07:38.518Z,999.79
2022-09-05T11:07:48.649Z,999.80
2022-09-05T11:07:58.824Z,999.81
2022-09-05T11:08:08.916Z,999.81
2022-09-05T11:08:18.996Z,999.81
2022-09-05T11:08:29.128Z,999.79
2022-09-05T11:08:39.256Z,999.80
2022-09-05T11:08:49.446Z,999.79
2022-09-05T11:08:59.590Z,999.79
2022-09-05T11:09:13.253Z,999.79
2022-09-05T11:09:20.749Z,999.78
2022-09-05T11:09:29.897Z,999.78
2022-09-05T11:09:40.039Z,999.78
2022-09-05T11:09:53.335Z,999.77
2022-09-05T11:10:00.982Z,999.76
2022-09-05T11:10:10.353Z,999.76
2022-09-05T11:10:20.486Z,999.77
2022-09-05T11:10:30.631Z,999.76
2022-09-05T11:10:40.786Z,999.77
2022-09-05T11:10:50.861Z,999.77
2022-09-05T11:11:00.997Z,999.78
2022-09-05T11:11:11.140Z,999.77
2022-09-05T11:11:34.693Z,999.77
2022-09-05T11:11:40.082Z,999.75
2022-09-05T11:11:50.241Z,999.75
2022-09-05T11:12:00.312Z,999.75
2022-09-05T11:12:10.461Z,999.76
2022-09-05T11:12:20.540Z,999.73
2022-09-05T11:12:30.701Z,999.74
2022-09-05T11:12:40.787Z,999.75
2022-09-05T11:12:57.459Z,999.74
2022-09-05T11:13:02.491Z,999.75
2022-09-05T11:13:11.156Z,999.75
2022-09-05T11:13:21.315Z,999.75
2022-09-05T11:13:31.391Z,999.75
2022-09-05T11:13:41.566Z,999.74
2022-09-05T11:13:51.645Z,999.75
2022-09-05T11:14:01.706Z,999.75
2022-09-05T11:14:26.623Z,999.74
2022-09-05T11:14:31.773Z,999.74
2022-09-05T11:14:36.515Z,999.73
2022-09-05T11:14:46.655Z,999.72
2022-09-05T11:14:56.794Z,999.72
2022-09-05T11:15:06.944Z,999.71
2022-09-05T11:15:17.084Z,999.71
2022-09-05T11:15:27.238Z,999.70
2022-09-05T11:15:37.367Z,999.71
2022-09-05T11:16:03.467Z,999.70
2022-09-05T11:16:12.766Z,999.71
2022-09-05T11:16:18.302Z,999.69
2022-09-05T11:16:28.437Z,999.70
2022-09-05T11:16:38.572Z,999.70
2022-09-05T11:16:48.678Z,999.68
2022-09-05T11:16:58.790Z,999.70
2022-09-05T11:17:08.862Z,999.69
2022-09-05T11:17:19.019Z,999.67
2022-09-05T11:17:29.096Z,999.67
2022-09-05T11:17:39.245Z,999.69
2022-09-05T11:17:49.315Z,999.70
2022-09-05T11:17:59.459Z,999.71
2022-09-05T11:18:09.595Z,999.70
2022-09-05T11:18:19.732Z,999.70
2022-09-05T11:18:35.135Z,999.71
2022-09-05T11:19:01.138Z,999.69
2022-09-05T11:19:05.901Z,999.69
2022-09-05T11:19:16.846Z,999.69
2022-09-05T11:19:26.074Z,999.70
2022-09-05T11:19:36.146Z,999.69
2022-09-05T11:19:46.290Z,999.69
2022-09-05T11:19:56.352Z,999.69
2022-09-05T11:20:06.651Z,999.69
2022-09-05T11:20:27.641Z,999.68
2022-09-05T11:20:40.189Z,999.68
2022-09-05T11:20:44.926Z,999.69
2022-09-05T11:20:55.080Z,999.68
2022-09-05T11:21:05.233Z,999.68
2022-09-05T11:21:15.296Z,999.68
2022-09-05T11:21:25.441Z,999.69
2022-09-05T11:21:35.577Z,999.69
2022-09-05T11:21:45.732Z,999.69
2022-09-05T11:22:07.855Z,999.69
2022-09-05T11:22:27.848Z,999.70
2022-09-05T11:22:32.578Z,999.69
2022-09-05T11:22:42.671Z,999.67
2022-09-05T11:22:52.805Z,999.67
2022-09-05T11:23:02.947Z,999.68
2022-09-05T11:23:13.095Z,999.68
2022-09-05T11:23:23.340Z,999.67
2022-09-05T11:23:33.336Z,999.67
2022-09-05T11:23:43.487Z,999.66
2022-09-05T11:24:01.311Z,999.66
2022-09-05T11:24:06.050Z,999.66
2022-09-05T11:24:16.207Z,999.65
2022-09-05T11:24:27.521Z,999.65
2022-09-05T11:24:36.361Z,999.64
2022-09-05T11:24:46.507Z,999.64
2022-09-05T11:24:56.693Z,999.64
2022-09-05T11:25:06.741Z,999.65
2022-09-05T11:25:16.839Z,999.65
2022-09-05T11:25:36.289Z,999.65
2022-09-05T11:25:45.301Z,999.64
2022-09-05T11:25:50.102Z,999.64
2022-09-05T11:26:00.152Z,999.65
2022-09-05T11:26:10.348Z,999.64
2022-09-05T11:26:20.412Z,999.65
2022-09-05T11:26:30.550Z,999.66
2022-09-05T11:26:40.685Z,999.66
2022-09-05T11:26:56.892Z,999.67
2022-09-05T11:27:29.935Z,999.67
2022-09-05T11:27:35.386Z,999.67
2022-09-05T11:27:44.828Z,999.68
2022-09-05T11:27:54.977Z,999.69
2022-09-05T11:28:05.118Z,999.69
2022-09-05T11:28:15.213Z,999.69
2022-09-05T11:28:25.302Z,999.68
2022-09-05T11:28:36.953Z,999.68
2022-09-05T11:28:57.476Z,999.69
2022-09-05T11:29:04.743Z,999.69
2022-09-05T11:29:09.466Z,999.68
2022-09-05T11:29:19.628Z,999.67
2022-09-05T11:29:29.703Z,999.67
2022-09-05T11:29:39.835Z,999.66
2022-09-05T11:29:49.977Z,999.66
2022-09-05T11:30:00.161Z,999.66
2022-09-05T11:30:10.213Z,999.66
2022-09-05T11:30:38.153Z,999.66
2022-09-05T11:30:43.640Z,999.65
2022-09-05T11:30:53.706Z,999.65
2022-09-05T11:31:03.732Z,999.65
2022-09-05T11:31:13.831Z,999.65
2022-09-05T11:31:24.801Z,999.65
2022-09-05T11:33:01.798Z,999.64
2022-09-05T11:40:04.813Z,999.64
2022-09-05T11:40:49.303Z,999.55
2022-09-05T11:41:11.847Z,999.52
2022-09-05T11:41:18.064Z,999.51
2022-09-05T11:41:26.729Z,999.50
2022-09-05T11:41:35.785Z,999.50
2022-09-05T11:41:45.901Z,999.52
2022-09-05T11:41:55.968Z,999.53
2022-09-05T11:42:06.116Z,999.51
2022-09-05T11:42:16.205Z,999.52
2022-09-05T11:42:26.259Z,999.50
2022-09-05T11:42:36.356Z,999.50
2022-09-05T11:42:48.822Z,999.49
2022-09-05T11:42:56.578Z,999.49
2022-09-05T11:43:06.728Z,999.47
2022-09-05T11:43:16.794Z,999.47
2022-09-05T11:43:26.933Z,999.48
2022-09-05T11:43:37.080Z,999.46
2022-09-05T11:43:47.157Z,999.45
2022-09-05T11:44:11.813Z,999.43
2022-09-05T11:44:30.935Z,999.43
2022-09-05T11:44:35.681Z,999.48
2022-09-05T11:44:45.763Z,999.51
2022-09-05T11:44:55.858Z,999.49
2022-09-05T11:45:05.930Z,999.46
2022-09-05T11:45:16.088Z,999.44
2022-09-05T11:45:26.269Z,999.43
2022-09-05T11:45:36.856Z,999.43
2022-09-05T11:45:46.459Z,999.43
2022-09-05T11:45:56.663Z,999.43
2022-09-05T11:46:06.775Z,999.42
2022-09-05T11:46:16.967Z,999.40
2022-09-05T11:46:29.482Z,999.40
2022-09-05T11:46:37.062Z,999.40
2022-09-05T11:46:47.149Z,999.40
2022-09-05T11:46:57.272Z,999.40
2022-09-05T11:47:39.356Z,999.40
2022-09-05T11:47:48.138Z,999.38
2022-09-05T11:47:52.876Z,999.38
2022-09-05T11:48:03.053Z,999.38
2022-09-05T11:48:13.129Z,999.38
2022-09-05T11:48:23.319Z,999.38
2022-09-05T11:48:33.437Z,999.38
2022-09-05T11:48:46.565Z,999.39
2022-09-05T11:48:57.972Z,999.38
2022-09-05T11:49:04.396Z,999.37
2022-09-05T11:49:13.906Z,999.38
2022-09-05T11:49:24.059Z,999.38
2022-09-05T11:49:34.163Z,999.38
2022-09-05T11:49:44.235Z,999.40
2022-09-05T11:49:54.388Z,999.39
2022-09-05T11:50:08.941Z,999.40
2022-09-05T11:50:14.573Z,999.39
2022-09-05T11:50:24.713Z,999.39
2022-09-05T11:50:34.906Z,999.38
2022-09-05T11:50:44.982Z,999.38
2022-09-05T11:50:55.043Z,999.39
2022-09-05T11:51:05.216Z,999.38
2022-09-05T11:51:15.341Z,999.38
2022-09-05T11:51:33.459Z,999.38
2022-09-05T11:51:38.760Z,999.38
2022-09-05T11:51:45.759Z,999.38
2022-09-05T11:51:55.829Z,999.37
2022-09-05T11:52:06.742Z,999.36
2022-09-05T11:52:16.103Z,999.35
2022-09-05T11:52:26.241Z,999.33
2022-09-05T11:52:37.372Z,999.32
2022-09-05T11:52:46.537Z,999.32
2022-09-05T11:52:56.632Z,999.32
2022-09-05T11:53:06.689Z,999.32
2022-09-05T11:53:16.864Z,999.33
2022-09-05T11:53:26.948Z,999.33
2022-09-05T11:53:37.019Z,999.34
2022-09-05T11:53:47.162Z,999.34
2022-09-05T11:53:57.612Z,999.33
2022-09-05T11:54:07.452Z,999.32
2022-09-05T11:54:17.592Z,999.32
2022-09-05T11:54:27.751Z,999.32
2022-09-05T11:54:37.828Z,999.32
2022-09-05T11:54:47.993Z,999.32
2022-09-05T11:54:58.060Z,999.31
2022-09-05T11:55:08.196Z,999.30
2022-09-05T11:55:25.834Z,999.31
2022-09-05T11:55:30.579Z,999.32
2022-09-05T11:55:40.649Z,999.32
2022-09-05T11:55:50.807Z,999.30
2022-09-05T11:56:00.882Z,999.29
2022-09-05T11:56:10.955Z,999.30
2022-09-05T11:56:22.739Z,999.30
2022-09-05T11:56:31.225Z,999.28
2022-09-05T11:56:45.413Z,999.28
2022-09-05T11:56:51.448Z,999.29
2022-09-05T11:57:07.819Z,999.29
2022-09-05T11:57:38.581Z,999.29
2022-09-05T11:57:43.303Z,999.28
2022-09-05T11:57:56.826Z,999.29
2022-09-05T11:58:44.202Z,999.27
2022-09-05T11:58:50.569Z,999.26
2022-09-05T11:58:55.524Z,999.27
2022-09-05T11:59:05.557Z,999.26
2022-09-05T11:59:15.715Z,999.27
2022-09-05T11:59:37.686Z,999.28
2022-09-05T12:41:36.874Z,999.29
2022-09-05T12:42:11.535Z,999.29
2022-09-05T12:42:33.090Z,999.24
2022-09-05T12:42:54.515Z,999.25
2022-09-05T12:44:44.212Z,999.24
2022-09-05T12:44:50.474Z,999.23
2022-09-05T12:44:59.622Z,999.23
2022-09-05T12:45:09.618Z,999.22
2022-09-05T12:45:25.428Z,999.23
2022-09-05T12:45:42.454Z,999.23
2022-09-05T12:45:50.175Z,999.22
2022-09-05T12:45:58.900Z,999.21
2022-09-05T12:46:18.427Z,999.21
2022-09-05T12:46:29.070Z,999.21
2022-09-05T12:46:33.847Z,999.23
2022-09-05T12:46:43.925Z,999.24
2022-09-05T12:46:54.027Z,999.24
2022-09-05T12:47:18.678Z,999.24
2022-09-05T12:47:24.486Z,999.24
2022-09-05T12:47:29.634Z,999.24
2022-09-05T12:47:39.771Z,999.24
2022-09-05T12:47:49.921Z,999.23
2022-09-05T12:48:00.089Z,999.24
2022-09-05T12:48:10.126Z,999.23
2022-09-05T12:48:20.341Z,999.24
2022-09-05T12:48:38.842Z,999.24
2022-09-05T12:48:44.062Z,999.24
2022-09-05T12:48:50.638Z,999.24
2022-09-05T12:49:06.717Z,999.24
2022-09-05T12:49:12.016Z,999.24
2022-09-05T12:49:21.000Z,999.22
2022-09-05T12:49:36.206Z,999.22
2022-09-05T12:49:47.400Z,999.21
2022-09-05T12:49:56.875Z,999.21
2022-09-05T12:50:15.169Z,999.21
2022-09-05T12:50:20.294Z,999.22
2022-09-05T12:50:27.575Z,999.23
2022-09-05T12:50:37.717Z,999.24
2022-09-05T12:50:47.982Z,999.25
2022-09-05T12:50:57.989Z,999.26
2022-09-05T12:51:08.069Z,999.26
2022-09-05T12:51:47.030Z,999.27
2022-09-05T12:51:52.165Z,999.27
2022-09-05T12:51:56.885Z,999.29
2022-09-05T12:52:07.060Z,999.29
2022-09-05T12:52:17.138Z,999.30
2022-09-05T12:52:27.341Z,999.29
2022-09-05T12:52:37.409Z,999.27
2022-09-05T12:52:47.563Z,999.26
2022-09-05T12:52:57.634Z,999.26
2022-09-05T12:53:07.777Z,999.27
2022-09-05T12:53:17.871Z,999.27
2022-09-05T12:53:27.939Z,999.26
2022-09-05T12:53:38.048Z,999.27
2022-09-05T12:53:48.132Z,999.25
2022-09-05T12:53:58.194Z,999.26
2022-09-05T12:54:10.379Z,999.27
2022-09-05T12:54:37.612Z,999.27
2022-09-05T12:54:42.312Z,999.28
2022-09-05T12:54:56.536Z,999.28
2022-09-05T12:55:02.582Z,999.27
2022-09-05T12:55:12.727Z,999.28
2022-09-05T12:55:22.862Z,999.27
2022-09-05T12:55:33.054Z,999.28
2022-09-05T12:55:58.112Z,999.27
2022-09-05T13:03:03.051Z,999.27
2022-09-05T13:03:28.193Z,999.22
2022-09-05T13:03:34.573Z,999.15
2022-09-05T13:03:59.060Z,999.14
2022-09-05T13:04:17.907Z,999.15
2022-09-05T13:04:31.128Z,999.14
2022-09-05T13:04:37.301Z,999.13
2022-09-05T13:05:01.881Z,999.12
2022-09-05T13:05:07.503Z,999.13
2022-09-05T13:05:17.488Z,999.13
2022-09-05T13:05:27.550Z,999.13
2022-09-05T13:05:37.658Z,999.13
2022-09-05T13:05:47.790Z,999.11
2022-09-05T13:05:57.899Z,999.10
2022-09-05T13:06:08.025Z,999.11
2022-09-05T13:06:25.459Z,999.11
2022-09-05T13:06:30.639Z,999.11
2022-09-05T13:06:38.426Z,999.11
2022-09-05T13:06:48.365Z,999.11
2022-09-05T13:06:58.512Z,999.10
2022-09-05T13:07:08.724Z,999.10
2022-09-05T13:07:18.683Z,999.10
2022-09-05T13:07:28.848Z,999.11
2022-09-05T13:07:38.976Z,999.10
2022-09-05T13:07:49.164Z,999.09
2022-09-05T13:07:59.242Z,999.08
2022-09-05T13:08:09.387Z,999.08
2022-09-05T13:08:19.578Z,999.07
2022-09-05T13:08:29.694Z,999.08
2022-09-05T13:08:39.767Z,999.06
2022-09-05T13:08:58.937Z,999.05
2022-09-05T13:09:04.381Z,999.05
2022-09-05T13:09:10.098Z,999.04
2022-09-05T13:09:20.241Z,999.04
2022-09-05T13:09:30.857Z,999.05
2022-09-05T13:13:38.257Z,999.06
2022-09-05T13:15:21.903Z,999.07
2022-09-05T13:15:28.470Z,999.04
2022-09-05T13:15:34.073Z,999.05
2022-09-05T13:15:43.778Z,999.03
2022-09-05T13:15:53.925Z,999.02
2022-09-05T13:16:03.909Z,999.02
2022-09-05T13:16:22.899Z,999.01
2022-09-05T13:16:28.247Z,999.02
2022-09-05T13:16:34.277Z,999.01
2022-09-05T13:16:44.349Z,999.01
2022-09-05T13:16:54.441Z,999.02
2022-09-05T13:17:04.515Z,999.01
2022-09-05T13:17:14.653Z,999.00
2022-09-05T13:17:24.814Z,999.01
2022-09-05T13:17:34.975Z,999.01
2022-09-05T13:17:47.701Z,999.00
2022-09-05T13:17:55.206Z,998.99
2022-09-05T13:18:05.352Z,998.99
2022-09-05T13:18:15.516Z,998.98
2022-09-05T13:18:25.571Z,998.98
2022-09-05T13:18:35.722Z,998.96
2022-09-05T13:18:45.872Z,998.96
2022-09-05T13:18:56.009Z,998.95
2022-09-05T13:19:06.209Z,998.94
2022-09-05T13:19:16.251Z,998.92
2022-09-05T13:19:26.429Z,998.92
2022-09-05T13:19:36.480Z,998.93
2022-09-05T13:19:46.616Z,998.94
2022-09-05T13:19:56.866Z,998.92
2022-09-05T13:20:06.900Z,998.92
2022-09-05T13:20:17.045Z,998.92
2022-09-05T13:20:27.116Z,998.92
2022-09-05T13:20:37.269Z,998.92
2022-09-05T13:20:47.414Z,998.92
2022-09-05T13:20:57.504Z,998.92
2022-09-05T13:21:07.685Z,998.92
2022-09-05T13:21:23.291Z,998.92
2022-09-05T13:21:28.274Z,998.93
2022-09-05T13:21:38.458Z,998.94
2022-09-05T13:21:48.079Z,998.93
2022-09-05T13:21:58.161Z,998.94
2022-09-05T13:22:08.288Z,998.94
2022-09-05T13:22:18.425Z,998.93
2022-09-05T13:22:28.604Z,998.93
2022-09-05T13:22:38.703Z,998.93
2022-09-05T13:22:53.310Z,998.93
2022-09-05T13:22:58.891Z,998.92
2022-09-05T13:23:09.038Z,998.93
2022-09-05T13:23:19.196Z,998.93
2022-09-05T13:23:29.279Z,998.95
2022-09-05T13:23:39.356Z,998.94
2022-09-05T13:23:50.772Z,998.94
2022-09-05T13:23:59.590Z,998.95
2022-09-05T13:24:09.705Z,998.95
2022-09-05T13:24:19.867Z,998.95
2022-09-05T13:24:29.991Z,998.94
2022-09-05T13:24:40.073Z,998.94
2022-09-05T13:24:50.147Z,998.93
2022-09-05T13:25:00.271Z,998.93
2022-09-05T13:25:10.329Z,998.93
2022-09-05T13:25:20.474Z,998.94
2022-09-05T13:25:30.629Z,998.92
2022-09-05T13:25:40.692Z,998.93
2022-09-05T13:25:50.835Z,998.92
2022-09-05T13:26:00.973Z,998.93
2022-09-05T13:26:11.112Z,998.93
2022-09-05T13:26:21.269Z,998.94
2022-09-05T13:26:31.482Z,998.94
2022-09-05T13:26:42.277Z,998.95
2022-09-05T13:26:51.658Z,998.95
2022-09-05T13:27:01.796Z,998.94
2022-09-05T13:27:11.965Z,998.93
2022-09-05T13:27:22.095Z,998.94
2022-09-05T13:27:32.243Z,998.95
2022-09-05T13:27:42.376Z,998.96
2022-09-05T13:27:52.538Z,998.95
2022-09-05T13:28:02.606Z,998.94
2022-09-05T13:28:12.836Z,998.94
2022-09-05T13:28:22.897Z,998.94
2022-09-05T13:28:33.044Z,998.93
2022-09-05T13:28:43.245Z,998.93
2022-09-05T13:29:10.903Z,998.92
2022-09-05T13:29:15.821Z,998.93
2022-09-05T13:29:20.544Z,998.94
2022-09-05T13:29:30.722Z,998.92
2022-09-05T13:31:13.739Z,998.91
2022-09-05T13:38:50.093Z,998.81
2022-09-05T13:38:56.039Z,998.80
2022-09-05T13:39:06.595Z,998.79
2022-09-05T13:39:15.527Z,998.77
2022-09-05T13:39:25.607Z,998.78
2022-09-05T13:39:35.785Z,998.78
2022-09-05T13:39:45.855Z,998.78
2022-09-05T13:39:56.029Z,998.78
2022-09-05T13:40:06.117Z,998.77
2022-09-05T13:40:16.320Z,998.78
2022-09-05T13:40:26.466Z,998.77
2022-09-05T13:40:36.556Z,998.76
2022-09-05T13:40:46.803Z,998.77
2022-09-05T13:40:56.652Z,998.77
2022-09-05T13:41:06.705Z,998.78
2022-09-05T13:41:32.027Z,998.78
2022-09-05T13:41:36.761Z,998.77
2022-09-05T13:41:46.912Z,998.77
2022-09-05T13:41:56.995Z,998.77
2022-09-05T13:42:07.072Z,998.76
2022-09-05T13:42:17.207Z,998.77
2022-09-05T13:42:27.383Z,998.77
2022-09-05T13:42:37.463Z,998.77
2022-09-05T13:42:47.637Z,998.78
2022-09-05T13:42:57.694Z,998.77
2022-09-05T13:43:07.769Z,998.75
2022-09-05T13:43:17.968Z,998.74
2022-09-05T13:43:28.090Z,998.74
2022-09-05T13:43:38.190Z,998.74
2022-09-05T13:43:48.329Z,998.74
2022-09-05T13:44:25.603Z,998.75
2022-09-05T13:44:32.617Z,998.74
2022-09-05T13:44:37.357Z,998.73
2022-09-05T13:44:47.442Z,998.73
2022-09-05T13:44:57.583Z,998.72
2022-09-05T13:45:07.736Z,998.73
2022-09-05T13:45:17.938Z,998.73
2022-09-05T13:45:28.037Z,998.73
2022-09-05T13:45:38.096Z,998.73
2022-09-05T13:45:48.238Z,998.74
2022-09-05T13:45:58.370Z,998.74
2022-09-05T13:46:08.491Z,998.74
2022-09-05T13:46:18.619Z,998.73
2022-09-05T13:46:28.791Z,998.72
2022-09-05T13:46:38.850Z,998.72
2022-09-05T13:46:48.925Z,998.73
2022-09-05T13:46:59.400Z,998.73
2022-09-05T13:47:30.381Z,998.74
2022-09-05T13:47:35.219Z,998.74
2022-09-05T13:47:39.975Z,998.73
2022-09-05T13:47:50.058Z,998.73
2022-09-05T13:48:00.185Z,998.73
2022-09-05T13:48:10.325Z,998.73
2022-09-05T13:48:20.609Z,998.73
2022-09-05T13:49:22.660Z,998.72
2022-09-05T13:49:31.433Z,998.73
2022-09-05T13:49:36.846Z,998.72
2022-09-05T13:49:46.979Z,998.71
2022-09-05T13:49:58.858Z,998.71
2022-09-05T13:50:09.558Z,998.72
2022-09-05T13:50:17.390Z,998.70
2022-09-05T13:50:27.535Z,998.70
2022-09-05T13:50:37.685Z,998.70
2022-09-05T13:50:47.864Z,998.72
2022-09-05T13:50:57.939Z,998.71
2022-09-05T13:51:08.120Z,998.69